Time;durP1;ratioP1;P1;durP2;ratioP2;P2;SDS_P1;SDS_P2;PMS_P1;PMS_P2;Temp;Humidity;BMP_temperature;BMP_pressure;BME280_temperature;BME280_humidity;BME280_pressure;Samples;Min_cycle;Max_cycle;Signal;HPM_P1;HPM_P2
2022/06/16 00:00:32;;;;;;;5.83;4.40;;;18.60;99.90;;;;;;5044310;28;21002;-83
2022/06/16 00:02:58;;;;;;;6.03;3.50;;;18.30;99.90;;;;;;5051059;28;20429;-86
2022/06/16 00:05:27;;;;;;;4.83;3.73;;;18.40;99.90;;;;;;5044606;28;20452;-81
2022/06/16 00:07:53;;;;;;;4.27;3.27;;;;;;;;;;5040332;28;20732;-85
2022/06/16 00:10:20;;;;;;;10.73;4.20;;;18.30;99.90;;;;;;5026363;28;20450;-83
2022/06/16 00:12:46;;;;;;;6.00;3.90;;;18.30;99.90;;;;;;5047827;28;20462;-83
2022/06/16 00:15:14;;;;;;;6.43;3.80;;;20.30;99.90;;;;;;5041067;28;20443;-83
2022/06/16 00:17:40;;;;;;;13.77;4.07;;;18.30;99.90;;;;;;5020991;28;20433;-85
2022/06/16 00:20:07;;;;;;;5.57;3.63;;;18.20;99.90;;;;;;5019407;28;20484;-81
2022/06/16 00:22:33;;;;;;;7.13;4.33;;;18.10;99.90;;;;;;5025310;28;20445;-85
2022/06/16 00:24:59;;;;;;;7.13;3.40;;;18.10;99.90;;;;;;5036827;28;20492;-85
2022/06/16 00:27:25;;;;;;;9.70;3.57;;;18.10;99.90;;;;;;5045215;28;20466;-85
2022/06/16 00:29:50;;;;;;;12.63;4.70;;;18.10;99.90;;;;;;5048749;28;20185;-82
2022/06/16 00:32:17;;;;;;;5.13;4.40;;;;;;;;;;5037849;28;20463;-84
2022/06/16 00:34:43;;;;;;;4.90;3.33;;;;;;;;;;5020563;28;20236;-84
2022/06/16 00:37:08;;;;;;;4.57;3.33;;;18.10;99.90;;;;;;5037969;28;20401;-81
2022/06/16 00:39:34;;;;;;;7.70;4.33;;;18.10;99.90;;;;;;5041078;28;20434;-84
2022/06/16 00:42:17;;;;;;;5.57;4.20;;;18.10;99.90;;;;;;5040978;28;20632;-84
2022/06/16 00:44:45;;;;;;;4.53;4.03;;;18.10;99.90;;;;;;5048112;28;20715;-83
2022/06/16 00:47:11;;;;;;;3.70;3.40;;;18.00;99.90;;;;;;5040735;28;20477;-85
2022/06/16 00:49:40;;;;;;;7.23;3.43;;;18.00;99.90;;;;;;5053159;28;21020;-84
2022/06/16 00:52:14;;;;;;;7.30;3.80;;;18.00;99.90;;;;;;5049012;28;20468;-85
2022/06/16 00:55:04;;;;;;;6.73;4.47;;;18.00;99.90;;;;;;5043455;28;20535;-84
2022/06/16 00:57:40;;;;;;;5.07;3.60;;;18.00;99.90;;;;;;5035703;28;20470;-85
2022/06/16 01:00:26;;;;;;;5.00;3.93;;;18.00;99.90;;;;;;5063075;28;20427;-84
2022/06/16 01:02:52;;;;;;;5.63;3.93;;;17.80;99.90;;;;;;5058731;28;20466;-82
2022/06/16 01:05:18;;;;;;;4.77;4.37;;;;;;;;;;5037845;28;20450;-84
2022/06/16 01:07:46;;;;;;;6.10;4.47;;;17.20;99.90;;;;;;5042377;28;20203;-84
2022/06/16 01:10:13;;;;;;;6.40;4.17;;;17.20;99.90;;;;;;5024482;28;20429;-85
2022/06/16 01:15:55;;;;;;;5.77;3.97;;;17.00;99.90;;;;;;5064289;28;20454;-84
2022/06/16 01:18:44;;;;;;;9.63;4.87;;;17.00;99.90;;;;;;5059910;28;20455;-83
2022/06/16 01:21:25;;;;;;;7.57;3.70;;;17.00;99.90;;;;;;5052909;28;20788;-82
2022/06/16 01:24:37;;;;;;;5.70;4.17;;;17.00;99.90;;;;;;5047259;28;20436;-85
2022/06/16 01:27:40;;;;;;;7.17;4.30;;;17.00;99.90;;;;;;4979547;28;21042;-84
2022/06/16 01:30:10;;;;;;;4.80;3.73;;;17.00;99.90;;;;;;5046800;28;20434;-82
2022/06/16 01:32:41;;;;;;;6.67;5.20;;;17.00;99.90;;;;;;5025167;28;20873;-85
2022/06/16 01:35:07;;;;;;;7.70;5.00;;;;;;;;;;5093653;23;20500;-83
2022/06/16 01:38:04;;;;;;;8.27;4.70;;;17.00;99.90;;;;;;5039102;28;20427;-84
2022/06/16 01:40:51;;;;;;;5.47;4.00;;;16.90;99.90;;;;;;5041533;28;20443;-83
2022/06/16 01:43:33;;;;;;;6.50;5.17;;;16.80;99.90;;;;;;5060710;28;21007;-83
2022/06/16 01:46:09;;;;;;;6.37;4.07;;;16.80;99.90;;;;;;5063564;28;20902;-83
2022/06/16 01:48:36;;;;;;;7.43;4.10;;;16.80;99.90;;;;;;5072233;28;20428;-82
2022/06/16 01:51:22;;;;;;;7.10;4.50;;;16.80;99.90;;;;;;5069094;28;20478;-83
2022/06/16 01:53:54;;;;;;;7.27;4.03;;;16.80;99.90;;;;;;5065700;28;21221;-84
2022/06/16 01:56:28;;;;;;;5.83;5.00;;;16.80;99.90;;;;;;5064228;28;20447;-83
2022/06/16 01:59:01;;;;;;;7.20;4.50;;;16.60;99.90;;;;;;5059256;28;20431;-83
2022/06/16 02:01:31;;;;;;;7.27;5.30;;;16.30;99.90;;;;;;5055679;28;20463;-83
2022/06/16 02:04:03;;;;;;;7.40;5.70;;;16.10;99.90;;;;;;5066919;28;20970;-84
2022/06/16 02:06:33;;;;;;;5.40;4.23;;;16.10;99.90;;;;;;5065110;28;20435;-84
2022/06/16 02:09:06;;;;;;;3.70;3.40;;;16.00;99.90;;;;;;5063266;28;20415;-84
2022/06/16 02:11:34;;;;;;;4.90;4.40;;;15.90;99.90;;;;;;5059983;28;20459;-83
2022/06/16 02:14:25;;;;;;;7.43;4.47;;;16.10;99.90;;;;;;5056825;28;20443;-83
2022/06/16 02:16:52;;;;;;;6.60;5.23;;;16.10;99.90;;;;;;5057166;28;20455;-82
2022/06/16 02:19:20;;;;;;;7.70;4.73;;;16.10;99.90;;;;;;5064190;28;20418;-84
2022/06/16 02:21:48;;;;;;;6.67;5.03;;;16.20;99.90;;;;;;5051658;28;20986;-84
2022/06/16 02:24:16;;;;;;;10.40;5.13;;;16.30;99.90;;;;;;5066740;28;21095;-84
2022/06/16 02:26:43;;;;;;;7.07;5.50;;;16.20;99.90;;;;;;5039684;28;20831;-85
2022/06/16 02:29:29;;;;;;;6.50;5.90;;;16.30;99.90;;;;;;5059017;28;20414;-84
2022/06/16 02:32:21;;;;;;;6.10;4.50;;;16.20;99.90;;;;;;5055379;28;20475;-85
2022/06/16 02:35:02;;;;;;;8.40;5.03;;;16.30;99.90;;;;;;5065502;28;20470;-84
2022/06/16 02:37:45;;;;;;;9.77;5.73;;;16.30;99.90;;;;;;5069826;28;20445;-84
2022/06/16 02:40:33;;;;;;;6.00;5.40;;;16.30;99.90;;;;;;5064069;28;20445;-85
2022/06/16 02:43:49;;;;;;;5.93;4.47;;;16.30;99.90;;;;;;5061230;28;20438;-82
2022/06/16 02:46:17;;;;;;;8.80;4.97;;;16.20;99.90;;;;;;5010901;28;20951;-84
2022/06/16 02:48:51;;;;;;;5.50;4.80;;;16.20;99.90;;;;;;5056312;28;22217;-84
2022/06/16 02:51:26;;;;;;;9.10;4.60;;;16.20;99.90;;;;;;5069306;28;20492;-84
2022/06/16 02:54:11;;;;;;;6.53;5.50;;;;;;;;;;5068249;28;20785;-83
2022/06/16 02:57:09;;;;;;;6.30;4.70;;;16.10;99.90;;;;;;5065572;28;20837;-82
2022/06/16 02:59:58;;;;;;;6.10;4.80;;;16.10;99.90;;;;;;5061899;28;20415;-83
2022/06/16 03:02:25;;;;;;;6.40;4.60;;;16.00;99.90;;;;;;5058617;28;20434;-83
2022/06/16 03:04:56;;;;;;;9.23;4.50;;;15.90;99.90;;;;;;5055125;28;20520;-83
2022/06/16 03:07:22;;;;;;;5.23;4.73;;;15.90;99.90;;;;;;5069832;28;20434;-83
2022/06/16 03:09:48;;;;;;;9.00;5.53;;;15.90;99.90;;;;;;5064250;28;20446;-83
2022/06/16 03:12:15;;;;;;;7.53;4.60;;;15.80;99.90;;;;;;5064990;28;20466;-83
2022/06/16 03:14:41;;;;;;;5.20;4.70;;;15.90;99.90;;;;;;5059809;28;21118;-83
2022/06/16 03:17:08;;;;;;;6.50;5.03;;;15.80;99.90;;;;;;5060226;28;20888;-83
2022/06/16 03:19:35;;;;;;;7.10;5.37;;;15.70;99.90;;;;;;5056091;28;20458;-82
2022/06/16 03:22:02;;;;;;;9.00;5.53;;;15.70;99.90;;;;;;5065851;28;20417;-84
2022/06/16 03:24:27;;;;;;;12.47;5.57;;;15.70;99.90;;;;;;5068074;28;20447;-83
2022/06/16 03:26:53;;;;;;;5.93;5.17;;;15.70;99.90;;;;;;5052620;28;20486;-83
2022/06/16 03:29:19;;;;;;;9.43;5.57;;;15.60;99.90;;;;;;5056707;28;20776;-84
2022/06/16 03:31:45;;;;;;;12.93;5.80;;;15.50;99.90;;;;;;5060176;28;20654;-84
2022/06/16 03:34:10;;;;;;;5.97;5.30;;;15.30;99.90;;;;;;5038415;28;20419;-83
2022/06/16 03:36:38;;;;;;;9.70;5.67;;;15.30;99.90;;;;;;5058467;28;20192;-83
2022/06/16 03:39:04;;;;;;;7.10;5.60;;;15.30;99.90;;;;;;5051564;28;20548;-84
2022/06/16 03:41:31;;;;;;;8.80;6.10;;;15.30;99.90;;;;;;5052507;28;20456;-83
2022/06/16 03:43:56;;;;;;;8.50;5.63;;;15.40;99.90;;;;;;5063154;28;20466;-84
2022/06/16 03:46:22;;;;;;;9.20;5.23;;;15.30;99.90;;;;;;5056449;28;20438;-83
2022/06/16 03:48:48;;;;;;;7.33;6.10;;;15.50;99.90;;;;;;5037101;28;20217;-83
2022/06/16 03:51:14;;;;;;;9.87;5.03;;;15.80;99.90;;;;;;5056344;28;20235;-83
2022/06/16 03:53:40;;;;;;;7.30;5.40;;;16.20;99.90;;;;;;5042906;28;20229;-82
2022/06/16 03:56:06;;;;;;;5.23;4.57;;;16.50;99.90;;;;;;5057660;28;20442;-83
2022/06/16 03:58:33;;;;;;;6.50;4.07;;;16.80;99.90;;;;;;5070213;28;20423;-82
2022/06/16 04:00:58;;;;;;;5.53;4.60;;;17.10;99.90;;;;;;5052440;28;20519;-83
2022/06/16 04:06:12;;;;;;;5.43;3.97;;;18.00;99.90;;;;;;5058519;28;20231;-84
2022/06/16 04:08:39;;;;;;;6.30;4.70;;;18.00;99.90;;;;;;5063782;28;20433;-83
2022/06/16 04:11:26;;;;;;;9.37;6.07;;;18.40;99.90;;;;;;5072913;28;20462;-82
2022/06/16 04:13:52;;;;;;;15.73;6.67;;;18.40;99.90;;;;;;5069442;28;20410;-83
2022/06/16 04:16:18;;;;;;;6.50;5.90;;;18.60;99.90;;;;;;5066404;28;20442;-83
2022/06/16 04:18:43;;;;;;;8.80;6.30;;;19.20;99.90;;;;;;5062517;28;20838;-83
2022/06/16 04:21:10;;;;;;;8.17;5.50;;;19.80;99.90;;;;;;5059987;28;21029;-84
2022/06/16 04:23:36;;;;;;;7.07;5.60;;;;;;;;;;5059974;28;20192;-82
2022/06/16 04:26:01;;;;;;;7.67;6.17;;;22.40;99.90;;;;;;5054977;28;20963;-83
2022/06/16 04:28:27;;;;;;;5.13;4.50;;;23.40;99.90;;;;;;5054710;28;20966;-83
2022/06/16 04:30:52;;;;;;;5.63;5.03;;;23.90;99.90;;;;;;5067075;28;20637;-82
2022/06/16 04:33:18;;;;;;;8.40;5.50;;;;;;;;;;5064299;28;20181;-82
2022/06/16 04:35:44;;;;;;;5.67;4.77;;;;;;;;;;5060197;28;20213;-83
2022/06/16 04:38:10;;;;;;;7.17;5.07;;;;;;;;;;5039357;28;20464;-83
2022/06/16 04:40:36;;;;;;;6.03;5.43;;;;;;;;;;5045315;28;20423;-83
2022/06/16 04:43:02;;;;;;;5.93;5.33;;;21.60;99.90;;;;;;5068899;28;20419;-83
2022/06/16 04:45:28;;;;;;;11.80;5.53;;;21.40;99.90;;;;;;5066892;28;21307;-84
2022/06/16 04:47:53;;;;;;;6.30;5.80;;;21.20;99.90;;;;;;5043577;28;20439;-83
2022/06/16 04:50:19;;;;;;;7.07;5.90;;;21.00;99.90;;;;;;5061319;28;20266;-83
2022/06/16 04:52:46;;;;;;;8.23;6.23;;;20.80;99.90;;;;;;5040265;28;20750;-82
2022/06/16 04:55:13;;;;;;;9.80;7.00;;;20.60;99.90;;;;;;5040982;28;20279;-83
2022/06/16 04:57:38;;;;;;;23.43;8.80;;;20.40;99.90;;;;;;5071509;28;20415;-82
2022/06/16 05:00:06;;;;;;;8.43;7.07;;;20.00;99.90;;;;;;5053733;28;20424;-82
2022/06/16 05:02:32;;;;;;;7.53;6.70;;;19.60;99.90;;;;;;5061370;28;20535;-83
2022/06/16 05:04:57;;;;;;;11.50;6.50;;;19.50;99.90;;;;;;5035231;28;21026;-85
2022/06/16 05:07:23;;;;;;;7.97;5.87;;;;;;;;;;5057648;28;20173;-84
2022/06/16 05:09:49;;;;;;;8.43;6.30;;;19.50;99.90;;;;;;5055072;28;20261;-82
2022/06/16 05:12:14;;;;;;;6.73;6.03;;;19.30;99.90;;;;;;5069590;28;20481;-83
2022/06/16 05:14:40;;;;;;;8.20;7.30;;;18.80;99.90;;;;;;5067140;28;20197;-86
2022/06/16 05:17:06;;;;;;;9.20;7.93;;;;;;;;;;5062373;28;20279;-85
2022/06/16 05:19:32;;;;;;;8.33;6.97;;;18.80;99.90;;;;;;5060573;28;20799;-85
2022/06/16 05:22:01;;;;;;;9.77;7.00;;;18.70;99.90;;;;;;5056875;28;20415;-85
2022/06/16 05:24:27;;;;;;;9.60;6.70;;;18.70;99.90;;;;;;5063123;28;20451;-87
2022/06/16 05:26:53;;;;;;;10.40;6.83;;;18.70;99.90;;;;;;5066751;28;20922;-85
2022/06/16 05:29:19;;;;;;;8.63;6.37;;;18.50;99.90;;;;;;5068909;28;20429;-86
2022/06/16 05:31:45;;;;;;;10.77;6.30;;;;;;;;;;5042800;28;20470;-84
2022/06/16 05:34:11;;;;;;;9.23;7.70;;;;;;;;;;5061990;28;20477;-84
2022/06/16 05:36:37;;;;;;;7.20;6.27;;;18.70;99.90;;;;;;5050667;28;20451;-86
2022/06/16 05:39:02;;;;;;;6.60;5.80;;;19.30;99.90;;;;;;5055401;28;20419;-85
2022/06/16 05:41:28;;;;;;;8.10;5.77;;;19.90;99.90;;;;;;5051469;28;20192;-82
2022/06/16 05:43:54;;;;;;;7.10;5.67;;;;;;;;;;5068156;28;20283;-84
2022/06/16 05:46:21;;;;;;;6.53;5.93;;;24.40;99.90;;;;;;5063633;28;20299;-84
2022/06/16 05:48:47;;;;;;;7.10;5.97;;;24.00;99.90;;;;;;5062804;28;20422;-86
2022/06/16 05:51:16;;;;;;;13.43;7.80;;;23.90;99.90;;;;;;5059621;28;20474;-85
2022/06/16 05:53:42;;;;;;;10.00;7.10;;;;;;;;;;5056357;28;20230;-85
2022/06/16 05:56:08;;;;;;;10.53;7.20;;;;;;;;;;5052617;28;20477;-86
2022/06/16 05:58:34;;;;;;;10.33;7.17;;;;;;;;;;5044184;28;20422;-85
2022/06/16 06:01:00;;;;;;;12.07;7.33;;;;;;;;;;5064894;28;20433;-85
2022/06/16 06:03:26;;;;;;;11.50;7.40;;;25.60;99.90;;;;;;5062264;28;20436;-85
2022/06/16 06:05:52;;;;;;;10.53;6.70;;;25.60;99.90;;;;;;5058308;28;20549;-85
2022/06/16 06:16:39;;;;;;;13.63;7.20;;;24.10;99.90;;;;;;5064008;28;20449;-84
2022/06/16 06:19:24;;;;;;;10.83;6.37;;;24.00;99.90;;;;;;5061544;28;20434;-84
2022/06/16 06:22:02;;;;;;;9.70;6.90;;;23.70;99.90;;;;;;5060301;28;20433;-86
2022/06/16 06:24:49;;;;;;;8.33;6.87;;;23.50;99.90;;;;;;5042035;28;20461;-83
2022/06/16 06:27:38;;;;;;;10.60;6.83;;;23.60;99.90;;;;;;5058518;28;20419;-85
2022/06/16 06:30:29;;;;;;;7.93;6.27;;;25.20;99.90;;;;;;5043573;28;20453;-84
2022/06/16 06:32:56;;;;;;;7.23;6.53;;;27.80;99.90;;;;;;5053739;28;20882;-83
2022/06/16 06:35:22;;;;;;;7.43;6.33;;;;;;;;;;5061458;28;20494;-83
2022/06/16 06:37:49;;;;;;;7.50;6.90;;;29.70;95.70;;;;;;5059065;28;20441;-83
2022/06/16 06:40:27;;;;;;;9.90;6.23;;;29.90;92.00;;;;;;5055545;28;20457;-82
2022/06/16 06:42:53;;;;;;;7.50;6.80;;;;;;;;;;5056292;28;20407;-83
2022/06/16 06:45:19;;;;;;;9.03;7.17;;;28.00;98.20;;;;;;5049934;28;21180;-83
2022/06/16 06:47:45;;;;;;;9.03;7.60;;;28.10;96.10;;;;;;5066587;28;20450;-85
2022/06/16 06:50:24;;;;;;;14.57;8.20;;;28.70;98.20;;;;;;5046551;28;20180;-83
2022/06/16 06:52:51;;;;;;;8.00;7.10;;;31.80;94.80;;;;;;5049907;28;20471;-85
2022/06/16 06:55:17;;;;;;;7.23;6.53;;;;;;;;;;5062244;28;20477;-84
2022/06/16 06:57:43;;;;;;;8.43;7.53;;;;;;;;;;5054060;28;20400;-84
2022/06/16 07:00:09;;;;;;;8.43;7.47;;;;;;;;;;5042905;28;20419;-84
2022/06/16 07:02:35;;;;;;;10.87;7.70;;;;;;;;;;5042384;28;20824;-84
2022/06/16 07:05:01;;;;;;;8.93;7.97;;;;;;;;;;5066848;28;20477;-84
2022/06/16 07:07:28;;;;;;;9.10;8.00;;;;;;;;;;5064770;28;20441;-84
2022/06/16 07:09:53;;;;;;;9.70;8.30;;;;;;;;;;5040111;28;20443;-84
2022/06/16 07:12:20;;;;;;;10.53;7.20;;;;;;;;;;5052086;28;21062;-84
2022/06/16 07:14:48;;;;;;;7.93;7.20;;;31.30;72.40;;;;;;5064781;28;20462;-84
2022/06/16 07:17:20;;;;;;;8.77;6.90;;;30.10;81.20;;;;;;5070850;28;20449;-84
2022/06/16 07:19:46;;;;;;;10.80;7.10;;;;;;;;;;5053061;28;20438;-84
2022/06/16 07:22:11;;;;;;;10.20;7.47;;;28.50;76.60;;;;;;5052859;28;20435;-84
2022/06/16 07:24:37;;;;;;;9.27;7.47;;;;;;;;;;5059989;28;20488;-84
2022/06/16 07:27:04;;;;;;;10.60;8.27;;;;;;;;;;5058032;28;20251;-83
2022/06/16 07:29:30;;;;;;;11.70;7.90;;;;;;;;;;5060221;28;20442;-83
2022/06/16 07:31:56;;;;;;;8.47;7.10;;;;;;;;;;5069980;28;20562;-85
2022/06/16 07:34:21;;;;;;;16.83;8.00;;;;;;;;;;5065571;28;21171;-85
2022/06/16 07:36:48;;;;;;;12.47;8.23;;;;;;;;;;5065568;22;20498;-83
2022/06/16 07:39:13;;;;;;;15.03;9.77;;;;;;;;;;5054562;28;20423;-84
2022/06/16 07:41:39;;;;;;;14.50;9.50;;;;;;;;;;5055226;28;20418;-85
2022/06/16 07:44:11;;;;;;;12.67;9.70;;;27.20;89.60;;;;;;5052089;28;20840;-85
2022/06/16 07:46:37;;;;;;;10.00;8.60;;;;;;;;;;5063271;28;20454;-83
2022/06/16 07:49:07;;;;;;;12.83;9.37;;;30.50;81.60;;;;;;5061725;28;20438;-83
2022/06/16 07:51:33;;;;;;;8.50;7.60;;;;;;;;;;5061163;28;20493;-84
2022/06/16 07:53:59;;;;;;;13.60;8.67;;;;;;;;;;5052966;28;20431;-82
2022/06/16 07:56:25;;;;;;;13.83;8.70;;;;;;;;;;5046237;28;20500;-84
2022/06/16 07:58:51;;;;;;;9.70;7.97;;;;;;;;;;5055903;28;20791;-84
2022/06/16 08:01:17;;;;;;;11.67;7.80;;;;;;;;;;5052742;28;20472;-85
2022/06/16 08:03:43;;;;;;;9.70;7.83;;;;;;;;;;5045542;28;20433;-84
2022/06/16 08:06:13;;;;;;;11.10;8.80;;;32.20;63.00;;;;;;5059964;28;20451;-83
2022/06/16 08:08:40;;;;;;;12.33;9.50;;;;;;;;;;5053381;28;20425;-83
2022/06/16 08:12:03;;;;;;;9.97;8.83;;;32.40;66.90;;;;;;5057554;28;20908;-85
2022/06/16 08:13:52;;;;;;;9.70;8.73;;;;;;;;;;5056258;28;20816;-84
2022/06/16 08:16:18;;;;;;;12.93;8.17;;;;;;;;;;5053340;28;20468;-84
2022/06/16 08:18:44;;;;;;;8.90;8.07;;;;;;;;;;5045695;28;20439;-84
2022/06/16 08:21:10;;;;;;;8.73;7.87;;;;;;;;;;5059047;28;20542;-84
2022/06/16 08:23:36;;;;;;;9.90;8.90;;;;;;;;;;5041474;28;20503;-83
2022/06/16 08:26:03;;;;;;;12.87;8.83;;;30.40;80.40;;;;;;5062679;28;20468;-84
2022/06/16 08:28:29;;;;;;;8.43;7.07;;;;;;;;;;5047799;28;20436;-84
2022/06/16 08:30:55;;;;;;;12.50;7.97;;;;;;;;;;5054004;28;20876;-85
2022/06/16 08:33:21;;;;;;;8.83;7.93;;;;;;;;;;5046263;28;20435;-83
2022/06/16 08:35:47;;;;;;;10.90;8.57;;;;;;;;;;5045490;28;21100;-84
2022/06/16 08:38:13;;;;;;;11.03;8.23;;;30.30;75.70;;;;;;5051570;28;20438;-83
2022/06/16 08:40:46;;;;;;;11.67;7.53;;;29.20;74.00;;;;;;5050291;28;20419;-83
2022/06/16 08:43:31;;;;;;;10.67;7.47;;;28.40;76.20;;;;;;5043481;28;20443;-84
2022/06/16 08:46:04;;;;;;;12.83;7.60;;;29.50;82.70;;;;;;5053450;28;20458;-84
2022/06/16 08:48:40;;;;;;;13.10;7.70;;;30.40;76.30;;;;;;5044586;28;20772;-84
2022/06/16 08:51:17;;;;;;;9.50;8.00;;;31.30;71.70;;;;;;5059803;28;20447;-83
2022/06/16 08:54:25;;;;;;;12.13;8.20;;;30.60;71.30;;;;;;5058258;28;20446;-84
2022/06/16 08:56:58;;;;;;;10.70;7.90;;;29.30;74.10;;;;;;5020198;28;21045;-83
2022/06/16 08:59:41;;;;;;;8.20;7.40;;;29.90;78.40;;;;;;5038469;28;20434;-84
2022/06/16 09:02:25;;;;;;;11.60;7.60;;;30.20;77.50;;;;;;5060472;28;20454;-85
2022/06/16 09:05:05;;;;;;;9.87;7.37;;;30.50;88.20;;;;;;5061253;28;20431;-84
2022/06/16 09:07:57;;;;;;;12.90;7.63;;;31.20;88.90;;;;;;5059668;28;20520;-84
2022/06/16 09:10:37;;;;;;;10.73;7.17;;;31.10;81.80;;;;;;5056818;28;20533;-83
2022/06/16 09:13:31;;;;;;;6.83;6.07;;;31.00;77.90;;;;;;5038816;28;20483;-84
2022/06/16 09:15:57;;;;;;;10.37;6.90;;;;;;;;;;5018658;28;20457;-85
2022/06/16 09:18:23;;;;;;;7.90;6.83;;;;;;;;;;5045843;28;20433;-83
2022/06/16 09:21:01;;;;;;;9.20;7.27;;;30.70;72.80;;;;;;5060494;28;20188;-84
2022/06/16 09:23:52;;;;;;;7.00;6.30;;;30.00;74.00;;;;;;5059409;28;20472;-83
2022/06/16 09:26:32;;;;;;;10.97;7.03;;;30.60;79.20;;;;;;5049733;28;20460;-84
2022/06/16 09:29:08;;;;;;;7.00;6.40;;;30.90;73.30;;;;;;5054385;28;20443;-83
2022/06/16 09:32:01;;;;;;;7.00;6.33;;;30.50;79.00;;;;;;5059769;28;20496;-83
2022/06/16 09:34:40;;;;;;;6.80;6.20;;;31.90;70.30;;;;;;5045522;28;20495;-83
2022/06/16 09:37:12;;;;;;;7.23;6.53;;;33.00;66.30;;;;;;5063075;28;20458;-84
2022/06/16 09:39:42;;;;;;;9.23;7.60;;;32.20;62.50;;;;;;5052644;28;20488;-84
2022/06/16 09:45:21;;;;;;;7.67;6.83;;;32.10;65.80;;;;;;5056170;28;20510;-83
2022/06/16 09:47:55;;;;;;;8.77;7.77;;;31.80;63.90;;;;;;5060884;28;20995;-84
2022/06/16 09:50:21;;;;;;;7.60;6.60;;;;;;;;;;5064005;28;20433;-85
2022/06/16 09:53:01;;;;;;;8.80;7.50;;;33.20;64.90;;;;;;5046296;28;20530;-85
2022/06/16 09:55:39;;;;;;;7.37;6.67;;;32.80;65.60;;;;;;5062727;28;20501;-83
2022/06/16 09:58:40;;;;;;;7.90;7.30;;;33.10;67.70;;;;;;5058817;28;20437;-85
2022/06/16 10:01:10;;;;;;;10.73;9.20;;;33.30;57.40;;;;;;5058093;28;20421;-85
2022/06/16 10:03:39;;;;;;;9.27;8.47;;;33.10;57.60;;;;;;5046778;28;20648;-85
2022/06/16 10:06:24;;;;;;;8.73;7.70;;;33.40;68.30;;;;;;5046523;28;21287;-84
2022/06/16 10:08:58;;;;;;;8.40;7.80;;;32.30;59.00;;;;;;5060134;28;20491;-82
2022/06/16 10:11:48;;;;;;;8.90;8.10;;;31.70;83.80;;;;;;5059600;28;20476;-85
2022/06/16 10:14:46;;;;;;;7.87;7.10;;;32.30;61.90;;;;;;5056548;28;20423;-83
2022/06/16 10:17:15;;;;;;;8.83;7.27;;;32.60;58.70;;;;;;5060623;28;20440;-84
2022/06/16 10:19:46;;;;;;;8.07;7.57;;;32.40;59.40;;;;;;5063691;28;20492;-84
2022/06/16 10:22:21;;;;;;;7.80;7.30;;;32.80;59.10;;;;;;5054405;28;20425;-85
2022/06/16 10:24:57;;;;;;;13.23;7.80;;;32.70;80.40;;;;;;5051917;28;20437;-85
2022/06/16 10:27:32;;;;;;;8.23;7.53;;;32.70;57.60;;;;;;5058373;28;20819;-83
2022/06/16 10:29:59;;;;;;;8.40;7.70;;;32.80;77.20;;;;;;5053337;28;20433;-84
2022/06/16 10:32:42;;;;;;;7.60;6.90;;;31.80;61.30;;;;;;5057814;28;20447;-84
2022/06/16 10:35:15;;;;;;;8.30;7.73;;;31.10;59.10;;;;;;5060778;28;20437;-84
2022/06/16 10:37:42;;;;;;;7.63;6.93;;;29.50;66.40;;;;;;5060070;28;20414;-84
2022/06/16 10:40:13;;;;;;;8.70;7.37;;;29.10;67.30;;;;;;5058431;28;20420;-84
2022/06/16 10:42:41;;;;;;;10.33;7.00;;;28.70;71.60;;;;;;5050637;28;20591;-84
2022/06/16 10:45:23;;;;;;;11.60;5.60;;;28.40;68.70;;;;;;5054181;28;20523;-82
2022/06/16 10:47:54;;;;;;;5.80;5.30;;;28.30;68.80;;;;;;5056922;28;20419;-83
2022/06/16 10:50:34;;;;;;;5.67;5.27;;;28.20;69.60;;;;;;5062682;28;20446;-84
2022/06/16 10:53:04;;;;;;;8.20;5.30;;;28.10;75.10;;;;;;5060095;28;20552;-84
2022/06/16 10:55:43;;;;;;;5.97;5.00;;;28.40;74.70;;;;;;5058705;28;20443;-83
2022/06/16 10:58:31;;;;;;;6.60;5.30;;;28.70;73.90;;;;;;5056116;28;20429;-85
2022/06/16 11:01:22;;;;;;;6.30;5.70;;;28.10;72.10;;;;;;5056149;28;20446;-84
2022/06/16 11:03:52;;;;;;;6.33;5.70;;;27.80;70.80;;;;;;5059052;28;20413;-84
2022/06/16 11:06:21;;;;;;;8.97;4.90;;;27.90;72.40;;;;;;5061988;28;20468;-85
2022/06/16 11:09:03;;;;;;;6.63;5.20;;;27.90;73.20;;;;;;5060169;28;20469;-84
2022/06/16 11:12:19;;;;;;;5.90;5.30;;;27.90;72.90;;;;;;5058749;28;20953;-84
2022/06/16 11:14:54;;;;;;;11.33;5.80;;;28.20;72.50;;;;;;4971413;28;20473;-84
2022/06/16 11:17:28;;;;;;;10.93;5.37;;;28.20;73.90;;;;;;4970433;28;21074;-84
2022/06/16 11:20:21;;;;;;;5.87;5.27;;;28.10;70.60;;;;;;5030730;28;21135;-84
2022/06/16 11:22:49;;;;;;;6.93;4.93;;;27.70;72.10;;;;;;5046368;28;20524;-83
2022/06/16 11:25:30;;;;;;;5.83;5.23;;;27.80;68.90;;;;;;5063162;28;20491;-83
2022/06/16 11:28:12;;;;;;;7.13;5.10;;;27.80;73.40;;;;;;5065665;28;20420;-84
2022/06/16 11:31:00;;;;;;;6.73;5.10;;;27.90;68.00;;;;;;5057071;28;20559;-84
2022/06/16 11:36:42;;;;;;;10.77;5.40;;;28.10;66.60;;;;;;5064804;28;20477;-85
2022/06/16 11:39:38;;;;;;;4.50;4.10;;;28.20;68.30;;;;;;5064965;28;20423;-84
2022/06/16 11:42:07;;;;;;;6.93;4.90;;;27.90;65.30;;;;;;5062303;28;20470;-84
2022/06/16 11:44:46;;;;;;;5.47;4.97;;;27.90;71.80;;;;;;5052725;28;20436;-85
2022/06/16 11:47:26;;;;;;;6.47;5.17;;;27.80;66.60;;;;;;5059643;28;20430;-85
2022/06/16 11:50:16;;;;;;;6.07;4.93;;;28.60;68.60;;;;;;5058447;28;20509;-83
2022/06/16 11:53:09;;;;;;;6.17;5.53;;;28.10;66.20;;;;;;5066201;28;21081;-86
2022/06/16 11:55:53;;;;;;;5.80;4.90;;;27.90;68.10;;;;;;5063274;28;20457;-85
2022/06/16 11:58:44;;;;;;;10.20;5.60;;;27.60;73.00;;;;;;5062297;28;20417;-84
2022/06/16 12:01:26;;;;;;;5.33;4.93;;;27.90;65.10;;;;;;5047535;28;20437;-83
2022/06/16 12:03:52;;;;;;;13.17;5.60;;;;;;;;;;5053031;28;20429;-83
2022/06/16 12:06:26;;;;;;;7.10;5.43;;;27.80;65.10;;;;;;5058386;28;20447;-85
2022/06/16 12:09:10;;;;;;;7.00;5.97;;;27.90;66.40;;;;;;5064759;28;20461;-84
2022/06/16 12:11:43;;;;;;;11.87;6.07;;;28.00;66.70;;;;;;5061850;28;20462;-85
2022/06/16 12:14:23;;;;;;;10.30;6.20;;;28.10;67.40;;;;;;5042592;28;20922;-84
2022/06/16 12:17:27;;;;;;;7.70;6.07;;;27.80;67.20;;;;;;5060304;28;20498;-84
2022/06/16 12:20:14;;;;;;;5.80;4.90;;;27.40;68.40;;;;;;4968631;28;20429;-82
2022/06/16 12:22:49;;;;;;;8.10;5.33;;;28.40;73.20;;;;;;5037699;28;20985;-85
2022/06/16 12:25:32;;;;;;;6.07;5.47;;;28.00;64.80;;;;;;5065277;28;20430;-84
2022/06/16 12:28:36;;;;;;;6.17;5.60;;;27.90;65.40;;;;;;5065226;28;20447;-84
2022/06/16 12:31:13;;;;;;;5.97;5.30;;;28.40;70.00;;;;;;5063026;28;20510;-84
2022/06/16 12:34:00;;;;;;;7.43;5.50;;;28.50;62.50;;;;;;5045565;28;20440;-83
2022/06/16 12:36:31;;;;;;;6.53;5.40;;;28.40;65.10;;;;;;5057931;28;20474;-85
2022/06/16 12:39:04;;;;;;;9.17;5.33;;;28.30;60.10;;;;;;5059824;28;20423;-84
2022/06/16 12:41:35;;;;;;;7.23;5.20;;;28.40;60.60;;;;;;5046661;28;20427;-85
2022/06/16 12:44:10;;;;;;;5.30;4.90;;;27.80;57.20;;;;;;5062559;28;20466;-85
2022/06/16 12:46:45;;;;;;;6.67;6.07;;;28.20;54.80;;;;;;5061854;28;20441;-83
2022/06/16 12:49:36;;;;;;;7.53;5.10;;;27.90;57.00;;;;;;5060700;28;20439;-84
2022/06/16 12:52:12;;;;;;;9.60;5.43;;;28.10;61.50;;;;;;5060224;28;21110;-82
2022/06/16 12:54:49;;;;;;;10.10;5.30;;;28.40;56.40;;;;;;5058422;28;20407;-84
2022/06/16 12:57:24;;;;;;;6.20;5.60;;;28.20;56.80;;;;;;5073132;28;20459;-84
2022/06/16 12:59:57;;;;;;;8.40;6.10;;;28.20;58.60;;;;;;5065226;28;20438;-85
2022/06/16 13:02:28;;;;;;;5.30;4.90;;;28.10;57.30;;;;;;5066995;28;20419;-85
2022/06/16 13:04:57;;;;;;;6.20;5.30;;;24.90;56.40;;;;;;5064711;28;20428;-84
2022/06/16 13:07:28;;;;;;;5.40;5.00;;;28.10;55.10;;;;;;5062089;28;20903;-82
2022/06/16 13:09:54;;;;;;;6.67;6.00;;;;;;;;;;5060017;28;20427;-83
2022/06/16 13:12:33;;;;;;;5.97;5.10;;;28.70;57.70;;;;;;5067694;28;20455;-81
2022/06/16 13:15:13;;;;;;;5.60;5.10;;;28.70;54.90;;;;;;5050316;28;20431;-81
2022/06/16 13:17:58;;;;;;;7.70;5.50;;;28.90;58.10;;;;;;5063447;28;20436;-82
2022/06/16 13:20:28;;;;;;;7.13;6.43;;;28.50;58.70;;;;;;5048198;28;20979;-82
2022/06/16 13:23:03;;;;;;;8.70;6.07;;;28.60;61.90;;;;;;5060100;28;20437;-82
2022/06/16 13:25:47;;;;;;;6.30;5.70;;;28.70;57.10;;;;;;5058764;28;20471;-82
2022/06/16 13:28:29;;;;;;;8.23;6.00;;;28.60;57.40;;;;;;5055077;28;20436;-85
2022/06/16 13:31:24;;;;;;;5.37;4.60;;;28.30;53.30;;;;;;5045659;28;20533;-85
2022/06/16 13:34:18;;;;;;;5.63;4.90;;;28.40;53.20;;;;;;5059861;28;20834;-85
2022/06/16 13:36:44;;;;;;;8.90;5.17;;;28.50;59.10;;;;;;5060554;28;20454;-84
2022/06/16 13:39:52;;;;;;;8.30;5.43;;;28.60;51.40;;;;;;5057969;28;20796;-83
2022/06/16 13:42:21;;;;;;;5.17;4.73;;;28.30;51.40;;;;;;5057542;28;20181;-84
2022/06/16 13:45:25;;;;;;;6.67;4.83;;;28.60;49.20;;;;;;5062873;28;20457;-84
2022/06/16 13:48:06;;;;;;;9.13;5.27;;;28.60;52.00;;;;;;4946710;28;21172;-84
2022/06/16 13:50:48;;;;;;;5.43;4.80;;;28.70;50.00;;;;;;4953973;28;20439;-82
2022/06/16 13:53:18;;;;;;;4.60;4.20;;;28.80;50.30;;;;;;5023521;28;20464;-83
2022/06/16 13:55:44;;;;;;;5.67;5.17;;;;;;;;;;5043546;28;20910;-82
2022/06/16 13:58:13;;;;;;;9.73;5.13;;;28.20;49.70;;;;;;5060182;28;20437;-84